Mogul, Nevada
Current Conditions -  °F | °C
As of 1:55 AM on Thursday 27 Nov 2014 (Local Time) from KRNO Reporting Station
Scattered Clouds Scattered Clouds  
Wind Chill: 42°   Ceiling: Unl
Heat Index: 45°   Visibility: 10mi
Dew Point: 26°   Wind: 6mph
Humidity: 48%   Direction: NA
Pressure: 30.28"   Gusts: NA
Location:  39.5383°N, 119.938°W
Report Text: KRNO 270955Z VRB05KT 10SM SCT160 SCT200 07/M03 A3028 RMK AO2 SLP229 T00721033
Loading
Personal Weather Stations






























Interactive Weather Map New forecast layout! Learn more

10-Day Weather Forecast

Advertisements
Track Severe Weather on mobile